Time;durP1;ratioP1;P1;durP2;ratioP2;P2;SDS_P1;SDS_P2;PMS_P1;PMS_P2;Temp;Humidity;BMP_temperature;BMP_pressure;BME280_temperature;BME280_humidity;BME280_pressure;Samples;Min_cycle;Max_cycle;Signal;HPM_P1;HPM_P2
2021/03/18 00:02:04;;;;;;;7.43;6.00;;;;;;;1.06;100.00;101911.84;4968932;28;20907;-68
2021/03/18 00:04:30;;;;;;;7.63;6.20;;;;;;;1.09;100.00;101910.69;4986482;28;20193;-69
2021/03/18 00:06:56;;;;;;;9.10;6.77;;;;;;;1.13;100.00;101909.28;4965189;28;20225;-67
2021/03/18 00:09:21;;;;;;;8.50;6.23;;;;;;;1.02;100.00;101904.38;4981853;28;20213;-67
2021/03/18 00:11:50;;;;;;;7.60;6.00;;;;;;;0.90;100.00;101906.66;4996683;28;20226;-67
2021/03/18 00:14:17;;;;;;;7.70;6.47;;;;;;;0.96;100.00;101910.47;4982714;28;20190;-67
2021/03/18 00:16:45;;;;;;;7.93;6.20;;;;;;;1.01;100.00;101910.72;4981249;28;20910;-67
2021/03/18 00:19:11;;;;;;;8.10;6.83;;;;;;;1.15;100.00;101916.97;4983000;28;20223;-67
2021/03/18 00:21:37;;;;;;;8.03;7.20;;;;;;;0.97;100.00;101912.09;4943996;28;20229;-68
2021/03/18 00:24:05;;;;;;;9.17;6.70;;;;;;;0.92;100.00;101914.50;4964781;28;20323;-67
2021/03/18 00:26:31;;;;;;;8.30;7.40;;;;;;;1.02;100.00;101915.06;4964894;28;20228;-68
2021/03/18 00:28:58;;;;;;;10.17;7.10;;;;;;;1.08;100.00;101914.34;4939776;28;20213;-67
2021/03/18 00:31:27;;;;;;;7.50;6.67;;;;;;;1.13;100.00;101911.97;4964729;28;21257;-67
2021/03/18 00:33:53;;;;;;;7.97;7.13;;;;;;;1.19;100.00;101912.91;4982505;28;20280;-68
2021/03/18 00:36:19;;;;;;;7.67;6.70;;;;;;;1.19;100.00;101915.59;4980757;28;20303;-66
2021/03/18 00:38:47;;;;;;;8.43;7.30;;;;;;;0.91;100.00;101918.19;4965574;28;20225;-67
2021/03/18 00:41:13;;;;;;;8.67;7.17;;;;;;;0.87;100.00;101914.19;4943315;28;20261;-67
2021/03/18 00:43:39;;;;;;;10.17;7.20;;;;;;;0.84;100.00;101912.72;4963988;28;20193;-69
2021/03/18 00:46:06;;;;;;;7.10;6.40;;;;;;;0.74;100.00;101908.63;4962338;28;20221;-68
2021/03/18 00:48:32;;;;;;;8.10;6.47;;;;;;;0.92;100.00;101903.81;4964663;28;20214;-68
2021/03/18 00:51:00;;;;;;;7.93;6.63;;;;;;;1.07;100.00;101907.34;4935216;28;20287;-66
2021/03/18 00:53:42;;;;;;;9.03;6.97;;;;;;;1.07;100.00;101908.19;4998480;28;20193;-69
2021/03/18 00:56:21;;;;;;;8.13;7.10;;;;;;;0.90;100.00;101905.84;4968360;28;20320;-69
2021/03/18 00:58:52;;;;;;;9.60;7.10;;;;;;;0.96;100.00;101899.75;4985024;28;20205;-66
2021/03/18 01:01:23;;;;;;;8.33;6.70;;;;;;;0.76;100.00;101893.25;4984481;28;20320;-70
2021/03/18 01:03:49;;;;;;;8.10;7.23;;;;;;;0.91;100.00;101891.44;4984323;28;20423;-66
2021/03/18 01:06:20;;;;;;;7.77;6.57;;;;;;;1.00;100.00;101898.38;4973388;28;20224;-68
2021/03/18 01:08:49;;;;;;;8.37;6.73;;;;;;;1.11;100.00;101905.97;4969831;28;20213;-67
2021/03/18 01:11:19;;;;;;;8.13;6.30;;;;;;;1.13;100.00;101895.94;4952067;28;20229;-71
2021/03/18 01:13:51;;;;;;;7.53;6.57;;;;;;;0.89;100.00;101894.28;4983799;28;20742;-69
2021/03/18 01:16:24;;;;;;;7.40;6.60;;;;;;;0.76;100.00;101888.72;4985937;28;20625;-70
2021/03/18 01:19:08;;;;;;;7.97;6.67;;;;;;;0.73;100.00;101888.25;4985935;28;20222;-70
2021/03/18 01:21:35;;;;;;;8.43;6.47;;;;;;;0.76;100.00;101883.38;4985232;28;20699;-67
2021/03/18 01:24:01;;;;;;;7.83;6.50;;;;;;;0.85;100.00;101886.81;4950464;28;20672;-69
2021/03/18 01:26:29;;;;;;;7.50;6.33;;;;;;;0.93;100.00;101882.22;4995123;28;20597;-71
2021/03/18 01:28:55;;;;;;;8.33;6.70;;;;;;;0.76;100.00;101877.19;4985889;28;20214;-68
2021/03/18 01:31:23;;;;;;;7.47;6.60;;;;;;;0.65;100.00;101869.59;4979044;28;20213;-68
2021/03/18 01:33:49;;;;;;;10.33;6.67;;;;;;;0.66;100.00;101863.25;4984989;28;20316;-67
2021/03/18 01:36:14;;;;;;;7.97;6.83;;;;;;;0.55;100.00;101853.00;4967200;28;20229;-69
2021/03/18 01:38:41;;;;;;;7.83;6.50;;;;;;;0.47;100.00;101855.69;4985392;28;20225;-68
2021/03/18 01:41:09;;;;;;;8.23;6.67;;;;;;;0.55;100.00;101853.00;4983600;28;20225;-69
2021/03/18 01:43:35;;;;;;;7.20;6.03;;;;;;;0.54;100.00;101842.47;4983320;28;20251;-68
2021/03/18 01:46:00;;;;;;;6.90;5.93;;;;;;;0.40;100.00;101854.78;4984602;28;20644;-69
2021/03/18 01:48:26;;;;;;;9.43;6.77;;;;;;;0.36;100.00;101836.59;4968606;28;20284;-70
2021/03/18 01:50:54;;;;;;;7.87;6.33;;;;;;;0.35;100.00;101844.78;4982701;28;20434;-69
2021/03/18 01:53:22;;;;;;;8.87;6.43;;;;;;;0.30;100.00;101841.84;4989611;28;20679;-67
2021/03/18 01:55:49;;;;;;;7.97;6.40;;;;;;;0.46;100.00;101840.69;4966511;28;20232;-67
2021/03/18 01:58:14;;;;;;;7.60;6.87;;;;;;;0.34;100.00;101848.47;4985483;28;20780;-67
2021/03/18 02:00:45;;;;;;;7.93;6.40;;;;;;;0.40;100.00;101844.09;4983530;28;20202;-68
2021/03/18 02:03:10;;;;;;;8.27;6.60;;;;;;;0.30;100.00;101841.84;4983207;28;20644;-68
2021/03/18 02:05:36;;;;;;;8.33;6.63;;;;;;;0.26;100.00;101841.34;4967302;28;20236;-67
2021/03/18 02:08:02;;;;;;;8.37;6.90;;;;;;;0.34;100.00;101838.63;4951562;28;20244;-70
2021/03/18 02:10:29;;;;;;;9.00;7.23;;;;;;;0.36;100.00;101833.09;4984829;28;20233;-69
2021/03/18 02:12:57;;;;;;;9.17;7.50;;;;;;;0.33;100.00;101831.63;4982589;28;20264;-68
2021/03/18 02:15:47;;;;;;;8.33;6.67;;;;;;;0.28;100.00;101827.81;4978359;28;20707;-68
2021/03/18 02:18:18;;;;;;;8.10;6.90;;;;;;;0.38;100.00;101833.75;4971233;28;20198;-69
2021/03/18 02:21:02;;;;;;;9.47;7.80;;;;;;;0.34;100.00;101837.78;4982895;28;20246;-68
2021/03/18 02:23:55;;;;;;;8.87;6.87;;;;;;;0.26;100.00;101840.53;4984087;28;20606;-68
2021/03/18 02:26:33;;;;;;;9.33;6.90;;;;;;;0.27;100.00;101836.84;4984323;28;20296;-67
2021/03/18 02:29:30;;;;;;;11.03;7.50;;;;;;;0.24;100.00;101823.81;4983124;28;20209;-68
2021/03/18 02:32:21;;;;;;;10.33;8.07;;;;;;;0.43;100.00;101817.00;4981752;28;20749;-67
2021/03/18 02:34:52;;;;;;;10.90;8.10;;;;;;;0.26;100.00;101819.16;4967045;28;20932;-67
2021/03/18 02:37:21;;;;;;;10.23;8.37;;;;;;;0.35;100.00;101818.06;4984135;28;21250;-68
2021/03/18 02:39:52;;;;;;;9.93;7.40;;;;;;;0.28;100.00;101822.47;4967344;28;20300;-68
2021/03/18 02:42:18;;;;;;;8.80;6.90;;;;;;;0.22;100.00;101810.66;4965829;28;20723;-69
2021/03/18 02:44:44;;;;;;;10.67;7.43;;;;;;;0.18;100.00;101813.84;4967228;28;20205;-68
2021/03/18 02:47:10;;;;;;;8.50;6.73;;;;;;;0.02;100.00;101813.97;4982431;28;20225;-68
2021/03/18 02:49:39;;;;;;;8.40;7.23;;;;;;;-0.01;100.00;101833.84;4982443;28;20210;-68
2021/03/18 02:52:04;;;;;;;8.90;7.30;;;;;;;0.09;100.00;101833.59;4965655;28;20739;-69
2021/03/18 02:54:30;;;;;;;10.03;7.93;;;;;;;0.21;100.00;101821.53;4966787;28;20296;-70
2021/03/18 02:56:58;;;;;;;9.10;7.60;;;;;;;0.11;100.00;101827.09;4966100;28;20276;-68
2021/03/18 02:59:27;;;;;;;9.07;7.37;;;;;;;0.15;100.00;101816.91;4980140;28;20236;-68
2021/03/18 03:01:52;;;;;;;9.07;7.23;;;;;;;-0.02;100.00;101820.66;4965483;28;20232;-69
2021/03/18 03:04:18;;;;;;;8.23;7.07;;;;;;;-0.12;100.00;101814.72;4977857;28;20189;-67
2021/03/18 03:06:43;;;;;;;11.87;7.30;;;;;;;-0.18;100.00;101822.63;4950017;28;20634;-67
2021/03/18 03:09:11;;;;;;;11.27;9.20;;;;;;;-0.24;100.00;101809.94;4966505;28;20761;-68
2021/03/18 03:11:39;;;;;;;8.00;6.13;;;;;;;-0.18;100.00;101810.09;4966042;28;20217;-69
2021/03/18 03:14:08;;;;;;;6.80;5.97;;;;;;;-0.34;100.00;101815.50;4981902;28;20236;-67
2021/03/18 03:16:33;;;;;;;6.10;5.47;;;;;;;-0.44;100.00;101813.22;4965457;28;20225;-68
2021/03/18 03:18:59;;;;;;;6.23;5.63;;;;;;;-0.47;100.00;101813.59;4966535;28;20691;-69
2021/03/18 03:21:24;;;;;;;6.10;5.50;;;;;;;-0.37;100.00;101810.53;4965527;28;20655;-69
2021/03/18 03:23:50;;;;;;;7.07;5.77;;;;;;;-0.23;100.00;101807.09;4965346;28;20209;-67
2021/03/18 03:26:21;;;;;;;7.40;6.00;;;;;;;-0.35;100.00;101807.66;4965343;28;20308;-68
2021/03/18 03:28:46;;;;;;;7.80;6.23;;;;;;;-0.44;100.00;101808.75;4982187;28;20242;-68
2021/03/18 03:31:14;;;;;;;8.47;6.07;;;;;;;-0.45;100.00;101814.25;4981906;28;20225;-69
2021/03/18 03:33:40;;;;;;;7.33;6.63;;;;;;;-0.38;100.00;101808.03;4982997;28;20694;-68
2021/03/18 03:36:11;;;;;;;8.87;6.87;;;;;;;-0.17;100.00;101811.75;4965802;28;20236;-68
2021/03/18 03:38:38;;;;;;;7.17;6.47;;;;;;;-0.20;100.00;101796.09;4998292;28;20707;-69
2021/03/18 03:41:05;;;;;;;12.83;6.63;;;;;;;-0.02;100.00;101799.28;4965860;28;20304;-67
2021/03/18 03:43:33;;;;;;;8.30;5.97;;;;;;;-0.02;100.00;101801.97;4980829;28;20193;-68
2021/03/18 03:46:02;;;;;;;10.37;7.13;;;;;;;0.32;100.00;101791.72;4979873;28;20369;-67
2021/03/18 03:48:33;;;;;;;10.03;7.93;;;;;;;0.34;100.00;101795.06;4982043;28;20571;-67
2021/03/18 03:50:59;;;;;;;19.87;10.10;;;;;;;0.53;100.00;101800.72;4965705;28;20220;-69
2021/03/18 03:53:40;;;;;;;23.80;10.97;;;;;;;0.51;100.00;101802.75;4959724;28;20289;-68
2021/03/18 03:56:28;;;;;;;14.07;10.10;;;;;;;0.49;100.00;101800.25;4980768;28;20691;-67
2021/03/18 03:59:08;;;;;;;17.23;10.60;;;;;;;0.50;100.00;101796.56;4949789;28;20217;-67
2021/03/18 04:01:39;;;;;;;16.70;9.80;;;;;;;0.55;100.00;101804.88;4964951;28;20296;-68
2021/03/18 04:04:15;;;;;;;18.30;10.80;;;;;;;0.79;100.00;101802.00;4965513;28;20200;-68
2021/03/18 04:06:40;;;;;;;75.60;14.90;;;;;;;0.86;100.00;101797.56;4982382;28;20216;-68
2021/03/18 04:09:07;;;;;;;25.23;12.47;;;;;;;0.79;100.00;101802.00;4981597;28;21261;-69
2021/03/18 04:11:38;;;;;;;68.17;12.87;;;;;;;0.69;100.00;101796.06;4980808;28;20233;-68
2021/03/18 04:14:05;;;;;;;81.90;13.20;;;;;;;0.65;100.00;101799.28;4981184;28;20713;-69
2021/03/18 04:16:30;;;;;;;65.03;13.43;;;;;;;0.66;100.00;101791.09;4964069;28;20230;-68
2021/03/18 04:18:56;;;;;;;49.67;13.80;;;;;;;0.62;100.00;101784.44;4981249;28;20220;-68
2021/03/18 04:21:21;;;;;;;48.27;13.63;;;;;;;0.71;100.00;101787.88;4980318;28;20225;-68
2021/03/18 04:23:47;;;;;;;80.83;14.03;;;;;;;0.69;100.00;101790.72;4947675;28;20221;-68
2021/03/18 04:26:12;;;;;;;39.33;13.63;;;;;;;0.85;100.00;101790.56;4978681;28;20225;-69
2021/03/18 04:28:38;;;;;;;28.07;13.93;;;;;;;0.74;100.00;101800.88;4965019;28;20209;-68
2021/03/18 04:31:05;;;;;;;57.20;14.83;;;;;;;0.94;100.00;101800.19;4993118;28;20216;-69
2021/03/18 04:33:30;;;;;;;30.33;15.17;;;;;;;0.68;100.00;101802.44;4962089;28;20770;-69
2021/03/18 04:35:56;;;;;;;44.40;13.33;;;;;;;0.35;100.00;101796.69;4980348;28;20240;-68
2021/03/18 04:38:24;;;;;;;23.47;12.30;;;;;;;0.33;100.00;101798.72;4981213;28;20228;-68
2021/03/18 04:40:49;;;;;;;23.40;12.00;;;;;;;0.12;100.00;101806.56;4981121;28;20813;-71
2021/03/18 04:43:15;;;;;;;27.43;11.67;;;;;;;0.43;100.00;101792.97;4947971;28;21868;-67
2021/03/18 04:45:45;;;;;;;52.97;12.47;;;;;;;0.44;100.00;101799.13;4967902;28;20268;-69
2021/03/18 04:48:13;;;;;;;28.17;12.17;;;;;;;0.43;100.00;101795.63;4968439;28;20201;-69
2021/03/18 04:50:39;;;;;;;30.57;12.60;;;;;;;0.48;100.00;101793.25;4966358;28;20225;-68
2021/03/18 04:53:05;;;;;;;24.33;11.23;;;;;;;0.39;100.00;101798.84;4966250;28;20324;-68
2021/03/18 04:55:33;;;;;;;18.03;10.97;;;;;;;0.25;100.00;101791.59;4980179;28;20264;-68
2021/03/18 04:58:05;;;;;;;26.20;11.90;;;;;;;0.41;100.00;101786.97;4965414;28;20197;-69
2021/03/18 05:00:34;;;;;;;14.87;11.23;;;;;;;0.35;100.00;101788.69;4980098;28;20289;-68
2021/03/18 05:03:03;;;;;;;13.90;10.10;;;;;;;0.22;100.00;101794.66;4976703;28;20194;-67
2021/03/18 05:05:31;;;;;;;15.77;9.90;;;;;;;0.46;100.00;101795.28;4964298;28;20217;-68
2021/03/18 05:07:57;;;;;;;12.87;10.57;;;;;;;0.44;100.00;101796.44;4964458;28;20205;-68
2021/03/18 05:10:24;;;;;;;17.83;10.43;;;;;;;0.41;100.00;101788.81;4964240;28;20192;-70
2021/03/18 05:12:51;;;;;;;31.37;11.07;;;;;;;0.33;100.00;101798.72;4979901;28;20483;-68
2021/03/18 05:15:16;;;;;;;20.63;11.20;;;;;;;0.18;100.00;101787.16;4981965;28;20280;-68
2021/03/18 05:17:42;;;;;;;15.80;11.30;;;;;;;0.47;100.00;101788.91;4964893;28;20198;-70
2021/03/18 05:20:09;;;;;;;21.40;10.83;;;;;;;0.54;100.00;101792.53;4996500;28;21307;-67
2021/03/18 05:22:34;;;;;;;20.53;11.00;;;;;;;0.48;100.00;101785.25;4995775;28;20284;-68
2021/03/18 05:25:03;;;;;;;17.63;11.20;;;;;;;0.33;100.00;101772.00;4965089;28;20182;-67
2021/03/18 05:27:29;;;;;;;26.97;10.93;;;;;;;0.32;100.00;101775.69;4965188;28;20236;-67
2021/03/18 05:29:55;;;;;;;21.50;10.10;;;;;;;0.18;100.00;101776.47;4976720;28;20317;-67
2021/03/18 05:32:22;;;;;;;39.87;10.77;;;;;;;-0.01;100.00;101768.94;4981074;28;20726;-69
2021/03/18 05:34:48;;;;;;;20.00;10.50;;;;;;;0.14;100.00;101761.81;4981642;28;20237;-68
2021/03/18 05:37:13;;;;;;;23.43;11.33;;;;;;;0.11;100.00;101767.50;4981911;28;20221;-68
2021/03/18 05:39:41;;;;;;;17.17;11.67;;;;;;;0.44;100.00;101775.94;4985104;28;20205;-66
2021/03/18 05:42:07;;;;;;;15.03;10.73;;;;;;;0.64;100.00;101773.56;4984680;28;20931;-71
2021/03/18 05:44:32;;;;;;;13.23;10.97;;;;;;;0.47;100.00;101777.41;4966251;28;20198;-69
2021/03/18 05:46:58;;;;;;;12.00;9.90;;;;;;;0.51;100.00;101771.53;4967422;28;20256;-69
2021/03/18 05:49:24;;;;;;;14.63;10.87;;;;;;;0.50;100.00;101769.84;4984013;28;20218;-69
2021/03/18 05:51:50;;;;;;;14.40;11.23;;;;;;;0.46;100.00;101765.88;4966483;28;20240;-68
2021/03/18 05:54:15;;;;;;;14.80;11.50;;;;;;;0.65;100.00;101768.03;4984128;28;20671;-68
2021/03/18 05:56:41;;;;;;;23.63;11.23;;;;;;;0.52;100.00;101773.19;4967166;28;20232;-68
2021/03/18 05:59:06;;;;;;;20.90;11.67;;;;;;;0.69;100.00;101766.66;4985247;28;20655;-68
2021/03/18 06:01:32;;;;;;;14.57;10.70;;;;;;;0.38;100.00;101769.63;4951343;28;20300;-68
2021/03/18 06:04:00;;;;;;;25.60;10.60;;;;;;;0.50;100.00;101764.50;4982897;28;20661;-68
2021/03/18 06:06:25;;;;;;;16.70;9.87;;;;;;;0.23;100.00;101760.75;4983297;28;20315;-68
2021/03/18 06:08:53;;;;;;;27.37;9.83;;;;;;;0.21;100.00;101763.59;4985616;28;20217;-69
2021/03/18 06:11:19;;;;;;;22.07;10.97;;;;;;;0.04;100.00;101766.56;4967664;28;20983;-69
2021/03/18 06:13:44;;;;;;;40.50;11.23;;;;;;;0.24;100.00;101762.41;4967615;28;20185;-68
2021/03/18 06:16:10;;;;;;;28.60;10.47;;;;;;;0.36;100.00;101769.81;4985947;28;20233;-67
2021/03/18 06:18:38;;;;;;;34.83;10.23;;;;;;;0.47;100.00;101772.88;4986323;28;20218;-68
2021/03/18 06:21:05;;;;;;;34.33;11.37;;;;;;;0.37;100.00;101767.97;4983468;28;20283;-67
2021/03/18 06:23:34;;;;;;;21.87;9.70;;;;;;;0.57;100.00;101762.78;4964007;28;20201;-67
2021/03/18 06:26:00;;;;;;;48.67;10.60;;;;;;;0.54;100.00;101765.81;4986288;28;20248;-67
2021/03/18 06:28:27;;;;;;;19.83;9.70;;;;;;;0.64;100.00;101757.53;4966416;28;20214;-69
2021/03/18 06:31:09;;;;;;;21.20;9.60;;;;;;;0.63;100.00;101756.72;4982980;28;20227;-68
2021/03/18 06:33:50;;;;;;;37.20;10.13;;;;;;;0.48;100.00;101755.84;4983585;28;20197;-67
2021/03/18 06:36:22;;;;;;;25.33;10.47;;;;;;;0.29;100.00;101770.72;4981708;28;20285;-70
2021/03/18 06:39:07;;;;;;;23.10;10.60;;;;;;;0.47;100.00;101764.03;4962855;28;20220;-68
2021/03/18 06:41:36;;;;;;;21.77;10.40;;;;;;;0.69;100.00;101758.66;4950363;28;20221;-69
2021/03/18 06:44:16;;;;;;;18.67;10.13;;;;;;;0.48;100.00;101763.88;4983222;28;20659;-69
2021/03/18 06:46:42;;;;;;;34.83;10.70;;;;;;;0.74;100.00;101763.47;4982683;28;20225;-67
2021/03/18 06:49:12;;;;;;;18.17;10.37;;;;;;;0.93;100.00;101755.72;4966967;28;20222;-68
2021/03/18 06:51:37;;;;;;;25.60;12.13;;;;;;;0.87;100.00;101761.81;4956377;28;20316;-68
2021/03/18 06:54:04;;;;;;;33.47;11.63;;;;;;;1.07;100.00;101752.25;4979016;28;20198;-69
2021/03/18 06:56:32;;;;;;;25.23;10.20;;;;;;;1.22;100.00;101757.38;4949866;28;20234;-68
2021/03/18 06:58:58;;;;;;;39.40;10.70;;;;;;;1.01;100.00;101759.16;4964653;28;20263;-68
2021/03/18 07:01:27;;;;;;;22.87;9.70;;;;;;;0.85;100.00;101763.84;4978295;28;20232;-68
2021/03/18 07:04:01;;;;;;;22.90;9.93;;;;;;;1.06;100.00;101758.59;4983405;28;20228;-68
2021/03/18 07:06:29;;;;;;;23.33;10.10;;;;;;;1.15;100.00;101761.84;4966202;28;20232;-68
2021/03/18 07:09:13;;;;;;;17.53;12.07;;;;;;;1.07;100.00;101755.72;4950494;28;20206;-68
2021/03/18 07:11:43;;;;;;;16.73;10.80;;;;;;;1.31;100.00;101750.91;4962552;28;20671;-70
2021/03/18 07:14:10;;;;;;;15.73;10.63;;;;;;;1.49;100.00;101748.69;4998494;28;20857;-69
2021/03/18 07:16:50;;;;;;;16.50;9.30;;;;;;;1.35;100.00;101746.84;4981578;28;20313;-68
2021/03/18 07:19:23;;;;;;;15.50;8.60;;;;;;;1.37;100.00;101755.50;4966318;28;20233;-69
2021/03/18 07:21:48;;;;;;;19.03;10.17;;;;;;;1.53;100.00;101744.63;4965031;28;20256;-67
2021/03/18 07:24:20;;;;;;;14.63;9.03;;;;;;;1.20;100.00;101751.38;4982179;28;20648;-68
2021/03/18 07:26:48;;;;;;;11.50;9.70;;;;;;;1.22;100.00;101752.03;4964381;28;21350;-67
2021/03/18 07:29:18;;;;;;;20.60;10.37;;;;;;;1.55;100.00;101737.22;4965636;28;20687;-67
2021/03/18 07:31:45;;;;;;;17.80;10.43;;;;;;;1.77;100.00;101726.34;4954901;28;20700;-68
2021/03/18 07:34:14;;;;;;;14.50;10.10;;;;;;;1.68;100.00;101729.34;4966274;28;20201;-67
2021/03/18 07:36:40;;;;;;;14.57;9.33;;;;;;;1.64;100.00;101730.75;4960639;28;20308;-68
2021/03/18 07:39:07;;;;;;;22.80;8.47;;;;;;;1.41;100.00;101730.06;4983394;28;20248;-68
2021/03/18 07:41:35;;;;;;;9.67;7.90;;;;;;;1.39;100.00;101731.25;4981585;28;20221;-68
2021/03/18 07:44:01;;;;;;;11.80;8.80;;;;;;;1.27;100.00;101730.91;4949273;28;20670;-67
2021/03/18 07:46:27;;;;;;;10.33;7.90;;;;;;;1.25;100.00;101729.44;4981301;28;20221;-68
2021/03/18 07:48:55;;;;;;;10.57;7.97;;;;;;;1.59;100.00;101739.34;4981617;28;20237;-68
2021/03/18 07:51:21;;;;;;;10.93;8.10;;;;;;;1.87;100.00;101742.09;4978058;28;20221;-69
2021/03/18 07:53:55;;;;;;;9.83;8.07;;;;;;;1.67;100.00;101741.09;4965353;28;20690;-69
2021/03/18 07:56:21;;;;;;;11.07;8.67;;;;;;;2.16;100.00;101740.16;4981378;28;20240;-68
2021/03/18 07:58:48;;;;;;;10.53;8.43;;;;;;;1.88;100.00;101738.44;4981671;28;20213;-68
2021/03/18 08:01:32;;;;;;;10.30;7.87;;;;;;;1.94;100.00;101738.47;4964614;28;20229;-68
2021/03/18 08:03:58;;;;;;;12.67;7.97;;;;;;;1.87;100.00;101736.75;4981961;28;20197;-68
2021/03/18 08:06:39;;;;;;;15.47;10.50;;;;;;;2.11;100.00;101735.38;4981177;28;20228;-68
2021/03/18 08:09:36;;;;;;;20.10;12.57;;;;;;;2.35;100.00;101737.66;4982880;28;20213;-68
2021/03/18 08:12:02;;;;;;;12.63;9.10;;;;;;;2.65;100.00;101742.66;4980470;28;20229;-70
2021/03/18 08:14:27;;;;;;;14.53;8.93;;;;;;;2.61;100.00;101748.59;4965210;28;20878;-68
2021/03/18 08:16:53;;;;;;;12.93;10.47;;;;;;;2.70;100.00;101737.53;4980956;28;20225;-68
2021/03/18 08:19:19;;;;;;;14.67;10.17;;;;;;;2.76;100.00;101737.56;4980213;28;20263;-69
2021/03/18 08:21:45;;;;;;;16.70;13.17;;;;;;;2.79;100.00;101733.69;4980347;28;20275;-69
2021/03/18 08:24:12;;;;;;;19.03;13.80;;;;;;;2.82;100.00;101736.81;4983925;28;20575;-66
2021/03/18 08:26:38;;;;;;;16.53;11.97;;;;;;;2.86;100.00;101737.25;4983041;28;20221;-68
2021/03/18 08:29:16;;;;;;;16.10;11.87;;;;;;;2.67;100.00;101734.41;4984174;28;20583;-68
2021/03/18 08:31:47;;;;;;;14.30;9.43;;;;;;;2.66;100.00;101730.09;4980991;28;20277;-68
2021/03/18 08:34:19;;;;;;;18.63;13.57;;;;;;;2.68;100.00;101729.69;4984773;28;20264;-68
2021/03/18 08:36:50;;;;;;;17.37;11.03;;;;;;;2.70;100.00;101722.25;4982132;28;20233;-67
2021/03/18 08:39:42;;;;;;;16.53;11.60;;;;;;;2.97;100.00;101729.47;4982600;28;20224;-67
2021/03/18 08:42:29;;;;;;;19.53;12.23;;;;;;;3.05;100.00;101725.81;4979629;28;20225;-68
2021/03/18 08:44:57;;;;;;;23.63;15.37;;;;;;;2.65;100.00;101718.50;4977604;28;21093;-68
2021/03/18 08:47:36;;;;;;;20.00;13.57;;;;;;;2.69;100.00;101725.13;4981676;28;20710;-69
2021/03/18 08:50:02;;;;;;;21.07;13.30;;;;;;;2.35;100.00;101716.22;4997050;28;20654;-68
2021/03/18 08:52:40;;;;;;;21.37;12.93;;;;;;;2.50;100.00;101714.28;4979583;28;20221;-67
2021/03/18 08:55:10;;;;;;;22.57;12.57;;;;;;;2.38;100.00;101715.81;4980753;28;20275;-68
2021/03/18 08:57:38;;;;;;;24.10;14.10;;;;;;;2.57;100.00;101720.53;4960334;28;20206;-68
2021/03/18 09:00:11;;;;;;;23.07;12.80;;;;;;;2.61;100.00;101717.25;4960135;28;20216;-68
2021/03/18 09:02:38;;;;;;;19.57;12.03;;;;;;;3.07;100.00;101708.47;5000850;28;20247;-69
2021/03/18 09:05:10;;;;;;;22.47;13.20;;;;;;;3.27;100.00;101714.75;4967599;28;20189;-68
2021/03/18 09:07:36;;;;;;;22.30;13.37;;;;;;;3.31;100.00;101710.66;4984290;28;20283;-68
2021/03/18 09:10:17;;;;;;;24.47;15.10;;;;;;;3.39;100.00;101700.59;4983958;28;20702;-69
2021/03/18 09:12:53;;;;;;;25.10;14.33;;;;;;;3.30;100.00;101698.28;4984622;28;20220;-69
2021/03/18 09:15:32;;;;;;;21.77;13.40;;;;;;;3.41;100.00;101703.03;5004880;28;20271;-68
2021/03/18 09:18:11;;;;;;;23.40;13.90;;;;;;;3.43;100.00;101699.97;4972871;28;20205;-67
2021/03/18 09:20:37;;;;;;;22.23;13.60;;;;;;;3.27;100.00;101702.16;4987322;28;20299;-69
2021/03/18 09:23:24;;;;;;;22.30;13.63;;;;;;;3.26;100.00;101707.72;5004033;28;20196;-69
2021/03/18 09:25:55;;;;;;;24.03;14.53;;;;;;;3.43;100.00;101703.69;4984181;28;20217;-68
2021/03/18 09:28:21;;;;;;;21.77;12.93;;;;;;;3.40;100.00;101709.47;4988131;28;20214;-68
2021/03/18 09:30:56;;;;;;;20.23;13.23;;;;;;;3.75;100.00;101699.22;4954826;28;20738;-70
2021/03/18 09:33:23;;;;;;;19.40;13.00;;;;;;;3.90;100.00;101710.63;4987164;28;20563;-68
2021/03/18 09:35:52;;;;;;;19.23;12.77;;;;;;;3.75;100.00;101698.41;4993261;28;20316;-72
2021/03/18 09:38:20;;;;;;;20.63;13.47;;;;;;;4.24;100.00;101717.50;4955428;28;20728;-68
2021/03/18 09:40:53;;;;;;;20.30;13.83;;;;;;;3.96;100.00;101715.22;4987175;28;20966;-68
2021/03/18 09:43:22;;;;;;;19.40;13.10;;;;;;;4.00;100.00;101708.41;4987195;28;20196;-68
2021/03/18 09:45:59;;;;;;;22.20;14.83;;;;;;;3.77;100.00;101707.91;4986173;28;20726;-68
2021/03/18 09:48:31;;;;;;;19.87;13.33;;;;;;;3.89;100.00;101701.75;5005058;28;20220;-68
2021/03/18 09:51:10;;;;;;;20.63;13.70;;;;;;;3.98;100.00;101707.78;4972858;28;20255;-68
2021/03/18 09:53:39;;;;;;;22.20;13.80;;;;;;;3.68;100.00;101708.31;5004450;28;20196;-69
2021/03/18 09:56:13;;;;;;;22.07;14.10;;;;;;;3.63;100.00;101702.75;4986710;28;20239;-67
2021/03/18 09:58:41;;;;;;;19.50;13.07;;;;;;;3.86;100.00;101701.31;4970590;28;20220;-68
2021/03/18 10:01:13;;;;;;;19.53;12.73;;;;;;;4.29;100.00;101696.22;4965253;28;20232;-68
2021/03/18 10:03:55;;;;;;;20.27;12.80;;;;;;;4.18;100.00;101697.88;4985887;28;20585;-67
2021/03/18 10:06:27;;;;;;;21.03;13.23;;;;;;;4.28;100.00;101691.88;4987358;28;20217;-68
2021/03/18 10:08:53;;;;;;;19.00;12.37;;;;;;;4.01;100.00;101694.75;4988503;28;20220;-68
2021/03/18 10:11:24;;;;;;;20.20;13.13;;;;;;;3.79;100.00;101700.50;5008609;28;20216;-67
2021/03/18 10:13:50;;;;;;;18.90;12.77;;;;;;;3.87;100.00;101690.38;4977906;28;20189;-68
2021/03/18 10:16:16;;;;;;;18.43;13.30;;;;;;;4.39;100.00;101688.56;4993787;28;20229;-68
2021/03/18 10:18:42;;;;;;;19.50;13.93;;;;;;;4.55;100.00;101682.78;4996454;28;20209;-68
2021/03/18 10:21:07;;;;;;;28.83;18.90;;;;;;;4.58;100.00;101685.88;4975117;28;20614;-68
2021/03/18 10:23:34;;;;;;;20.20;14.23;;;;;;;4.53;100.00;101681.34;4988889;28;20199;-68
2021/03/18 10:26:00;;;;;;;16.87;13.03;;;;;;;4.57;100.00;101679.88;4960631;28;20224;-69
2021/03/18 10:28:29;;;;;;;15.53;11.87;;;;;;;4.80;100.00;101686.44;5005206;28;20225;-68
2021/03/18 10:30:55;;;;;;;17.43;13.77;;;;;;;4.60;100.00;101683.81;4983803;28;20228;-69
2021/03/18 10:33:27;;;;;;;16.80;12.37;;;;;;;4.53;100.00;101684.03;4971565;28;20188;-69
2021/03/18 10:35:55;;;;;;;17.13;12.77;;;;;;;4.07;100.00;101687.75;4955316;28;20232;-68
2021/03/18 10:38:26;;;;;;;25.47;16.13;;;;;;;4.06;100.00;101680.69;4987353;28;20284;-69
2021/03/18 10:40:52;;;;;;;23.30;16.93;;;;;;;3.78;100.00;101676.53;4986142;28;20229;-69
2021/03/18 10:43:31;;;;;;;22.20;15.50;;;;;;;3.85;100.00;101675.50;4965396;28;20239;-68
2021/03/18 10:46:16;;;;;;;19.93;12.70;;;;;;;3.90;100.00;101678.38;4969340;28;20247;-69
2021/03/18 10:48:46;;;;;;;22.37;13.63;;;;;;;4.28;100.00;101664.97;4986723;28;20270;-68
2021/03/18 10:51:16;;;;;;;18.57;11.13;;;;;;;3.73;100.00;101657.50;4966671;28;21114;-68
2021/03/18 10:53:45;;;;;;;16.43;10.63;;;;;;;4.29;100.00;101655.91;5003376;28;20189;-69
2021/03/18 10:56:12;;;;;;;15.73;11.00;;;;;;;4.39;100.00;101656.28;5001825;28;20400;-68
2021/03/18 10:58:39;;;;;;;15.00;9.77;;;;;;;4.34;100.00;101653.41;4985539;28;20217;-68
2021/03/18 11:01:06;;;;;;;12.57;9.03;;;;;;;4.40;100.00;101652.59;4969320;28;20240;-69
2021/03/18 11:03:42;;;;;;;13.33;9.00;;;;;;;4.38;100.00;101649.28;4985322;28;20205;-69
2021/03/18 11:06:14;;;;;;;15.33;9.10;;;;;;;4.40;100.00;101649.91;4969364;28;20275;-69
2021/03/18 11:08:41;;;;;;;14.73;10.00;;;;;;;4.37;100.00;101641.41;4986053;28;20226;-69
2021/03/18 11:11:21;;;;;;;10.57;8.20;;;;;;;4.00;100.00;101644.72;4945806;28;20218;-69
2021/03/18 11:13:49;;;;;;;11.27;8.67;;;;;;;4.01;100.00;101649.06;4967735;28;20190;-70
2021/03/18 11:16:21;;;;;;;11.90;8.73;;;;;;;4.35;100.00;101644.31;4963473;28;20286;-69
2021/03/18 11:18:48;;;;;;;12.80;8.60;;;;;;;4.57;100.00;101638.47;4985424;28;20224;-69
2021/03/18 11:21:23;;;;;;;10.07;8.27;;;;;;;4.56;100.00;101641.41;4984488;28;20228;-69
2021/03/18 11:23:50;;;;;;;10.60;7.90;;;;;;;4.65;100.00;101635.59;4984540;28;20811;-70
2021/03/18 11:26:18;;;;;;;10.93;8.03;;;;;;;4.35;100.00;101632.72;4979640;28;20233;-69